Time;durP1;ratioP1;P1;durP2;ratioP2;P2;SDS_P1;SDS_P2;PMS_P1;PMS_P2;Temp;Humidity;BMP_temperature;BMP_pressure;BME280_temperature;BME280_humidity;BME280_pressure;Samples;Min_cycle;Max_cycle;Signal;HPM_P1;HPM_P2
2023/01/07 00:02:08;;;;;;;;;4.75;4.50;;;;;13.71;61.58;101078.81;6274660;22;45564;-76
2023/01/07 00:04:34;;;;;;;;;4.00;3.00;;;;;13.75;61.51;101082.88;6274333;22;45686;-75
2023/01/07 00:06:59;;;;;;;;;3.00;3.00;;;;;13.62;61.84;101058.44;6301832;22;48407;-75
2023/01/07 00:09:24;;;;;;;;;2.25;2.25;;;;;13.73;61.47;101067.19;6302605;22;45646;-75
2023/01/07 00:15:11;;;;;;;;;1.75;1.75;;;;;13.66;61.20;101060.69;6302385;22;45484;-77
2023/01/07 00:17:37;;;;;;;;;2.75;2.00;;;;;13.66;61.47;101051.97;6274536;22;47155;-74
2023/01/07 00:20:02;;;;;;;;;3.25;3.25;;;;;13.70;61.63;101056.06;6301389;22;46785;-76
2023/01/07 00:22:28;;;;;;;;;2.75;2.75;;;;;13.64;61.16;101043.34;6302068;22;45436;-77
2023/01/07 00:24:53;;;;;;;;;2.00;2.00;;;;;13.65;61.30;101042.41;6302166;22;45514;-75
2023/01/07 00:30:40;;;;;;;;;3.00;2.25;;;;;13.69;61.51;101033.31;6302459;22;45755;-77
2023/01/07 00:33:06;;;;;;;;;2.00;2.00;;;;;13.69;61.24;101028.03;6274331;22;45373;-75
2023/01/07 00:35:35;;;;;;;;;3.25;3.25;;;;;13.71;61.11;101029.59;6303061;22;45696;-75
2023/01/07 00:38:04;;;;;;;;;2.75;2.00;;;;;13.66;61.21;101010.66;6301914;22;46455;-78
2023/01/07 00:40:31;;;;;;;;;4.00;2.50;;;;;13.70;61.14;101017.41;6301738;22;46967;-75
2023/01/07 00:43:00;;;;;;;;;3.00;3.00;;;;;13.71;61.57;101019.06;6302609;22;45614;-76
2023/01/07 00:45:28;;;;;;;;;3.00;3.00;;;;;13.72;61.16;101004.94;6302236;22;45714;-78
2023/01/07 00:47:54;;;;;;;;;2.00;2.00;;;;;13.70;61.33;101000.75;6302760;22;45451;-76
2023/01/07 00:50:21;;;;;;;;;2.75;2.75;;;;;13.71;60.94;101000.63;6302557;22;45962;-77
2023/01/07 00:52:46;;;;;;;;;2.50;2.50;;;;;13.71;61.17;100992.72;6301797;22;45545;-76
2023/01/07 00:55:13;;;;;;;;;3.00;2.25;;;;;13.71;60.75;100986.66;6274600;22;45606;-77
2023/01/07 01:01:02;;;;;;;;;2.00;2.00;;;;;13.69;60.97;100972.75;6302545;22;45551;-78
2023/01/07 01:03:30;;;;;;;;;3.25;2.00;;;;;13.63;61.13;100966.16;6274840;22;46074;-77
2023/01/07 01:06:01;;;;;;;;;5.00;4.75;;;;;13.65;60.80;100966.06;6303597;22;45713;-78
2023/01/07 01:08:26;;;;;;;;;2.25;2.00;;;;;13.62;61.08;100964.47;6304699;22;46429;-75
2023/01/07 01:10:52;;;;;;;;;3.00;2.50;;;;;13.61;60.97;100948.78;6304976;22;45540;-75
2023/01/07 01:13:17;;;;;;;;;3.00;2.00;;;;;13.64;60.38;100945.94;6305216;22;45431;-74
2023/01/07 01:15:47;;;;;;;;;3.00;2.00;;;;;13.65;60.75;100956.38;6305012;22;45598;-77
2023/01/07 01:18:14;;;;;;;;;2.25;2.00;;;;;13.64;60.79;100959.94;6302857;22;46531;-77
2023/01/07 01:20:40;;;;;;;;;1.00;1.00;;;;;13.61;60.71;100943.53;6301914;22;46754;-77
2023/01/07 01:23:06;;;;;;;;;2.75;2.00;;;;;13.63;60.89;100957.44;6301619;22;45526;-74
2023/01/07 01:25:32;;;;;;;;;2.00;2.00;;;;;13.62;60.54;100950.47;6302688;22;45795;-77
2023/01/07 01:31:19;;;;;;;;;2.50;2.00;;;;;13.59;60.30;100935.78;6301630;22;45564;-76
2023/01/07 01:33:44;;;;;;;;;2.00;1.00;;;;;13.55;60.67;100930.88;6302243;22;45658;-75
2023/01/07 01:36:12;;;;;;;;;1.00;1.00;;;;;13.59;60.37;100929.66;6302773;22;45389;-77
2023/01/07 01:38:37;;;;;;;;;1.00;1.00;;;;;13.60;60.29;100940.09;6301804;22;47193;-76
2023/01/07 01:41:03;;;;;;;;;4.75;3.00;;;;;13.57;60.23;100927.16;6273846;22;47040;-77
2023/01/07 01:43:37;;;;;;;;;2.00;2.00;;;;;13.59;60.53;100932.31;6302212;22;45592;-77
2023/01/07 01:46:39;;;;;;;;;1.50;1.50;;;;;13.57;60.52;100926.31;6302614;22;45563;-73
2023/01/07 01:49:19;;;;;;;;;1.00;1.00;;;;;13.53;60.39;100919.63;6301924;22;45675;-75
2023/01/07 01:51:48;;;;;;;;;1.50;1.50;;;;;13.54;60.39;100921.28;6301548;22;46625;-76
2023/01/07 01:54:15;;;;;;;;;1.50;1.50;;;;;13.50;60.18;100914.56;6302082;22;45493;-75
2023/01/07 01:56:44;;;;;;;;;2.50;2.50;;;;;13.52;60.32;100913.50;6302522;22;45542;-75
2023/01/07 01:59:15;;;;;;;;;2.00;2.00;;;;;13.57;60.19;100915.78;6274206;22;47766;-75
2023/01/07 02:01:41;;;;;;;;;2.00;2.00;;;;;13.55;60.19;100913.25;6302317;22;45583;-79
2023/01/07 02:04:19;;;;;;;;;2.00;2.00;;;;;13.47;60.42;100897.25;6301464;22;45530;-76
2023/01/07 02:06:53;;;;;;;;;2.00;2.00;;;;;13.55;60.01;100904.56;6302520;22;45682;-77
2023/01/07 02:09:19;;;;;;;;;2.00;2.00;;;;;13.51;60.28;100903.09;6302115;22;45598;-74
2023/01/07 02:11:54;;;;;;;;;2.00;2.00;;;;;13.48;60.44;100898.94;6300846;22;46315;-74
2023/01/07 02:14:25;;;;;;;;;2.50;2.00;;;;;13.53;60.71;100903.81;6302017;22;45447;-77
2023/01/07 02:17:11;;;;;;;;;4.00;3.00;;;;;13.54;60.27;100901.09;6302336;22;45409;-76
2023/01/07 02:19:54;;;;;;;;;3.00;2.00;;;;;13.55;60.30;100896.66;6301314;22;46398;-76
2023/01/07 02:22:48;;;;;;;;;2.00;2.00;;;;;13.56;60.20;100893.03;6302145;22;46535;-77
2023/01/07 02:25:23;;;;;;;;;3.00;2.00;;;;;13.55;60.53;100899.28;6301264;22;45482;-76
2023/01/07 02:28:04;;;;;;;;;1.00;1.00;;;;;13.55;60.27;100899.28;6301369;22;45543;-75
2023/01/07 02:31:02;;;;;;;;;2.00;1.25;;;;;13.54;60.48;100893.19;6301239;22;46217;-76
2023/01/07 02:33:36;;;;;;;;;2.75;2.00;;;;;13.51;60.40;100882.03;6175638;23;47014;-76
2023/01/07 02:36:46;;;;;;;;;1.75;1.50;;;;;13.53;60.66;100886.25;6176346;23;45744;-75
2023/01/07 02:39:36;;;;;;;;;2.75;2.25;;;;;13.53;60.57;100885.41;6086761;23;45566;-77
2023/01/07 02:42:26;;;;;;;;;1.00;1.00;;;;;13.51;60.60;100874.97;6086459;23;47189;-75
2023/01/07 02:45:16;;;;;;;;;1.00;1.00;;;;;13.48;60.63;100874.41;6088090;23;46233;-75
2023/01/07 02:47:58;;;;;;;;;1.50;1.50;;;;;13.45;60.90;100865.78;6088428;23;45630;-74
2023/01/07 02:50:24;;;;;;;;;2.25;1.00;;;;;13.48;60.70;100858.59;6089868;23;45953;-73
2023/01/07 02:52:49;;;;;;;;;1.00;1.00;;;;;13.50;60.46;100867.19;6090104;23;46651;-74
2023/01/07 02:55:23;;;;;;;;;2.00;1.25;;;;;13.45;60.59;100857.03;6089244;23;45612;-76
2023/01/07 02:58:06;;;;;;;;;2.50;2.00;;;;;13.49;60.51;100855.03;6088925;23;45701;-74
2023/01/07 03:00:43;;;;;;;;;1.00;1.00;;;;;13.49;60.97;100860.28;6088120;23;45931;-73
2023/01/07 03:03:50;;;;;;;;;1.00;1.00;;;;;13.49;60.55;100852.38;6087454;23;46453;-75
2023/01/07 03:07:01;;;;;;;;;2.25;0.75;;;;;13.49;60.36;100841.84;6087757;23;46437;-75
2023/01/07 03:09:45;;;;;;;;;1.00;1.00;;;;;13.50;60.84;100835.59;6086070;23;45502;-76
2023/01/07 03:12:21;;;;;;;;;1.75;1.75;;;;;13.45;60.13;100821.03;6117671;23;45511;-73
2023/01/07 03:14:50;;;;;;;;;2.00;1.75;;;;;13.42;60.51;100813.38;6139707;22;46969;-75
2023/01/07 03:17:24;;;;;;;;;1.00;1.00;;;;;13.49;60.03;100818.16;6207278;22;46455;-74
2023/01/07 03:19:53;;;;;;;;;1.50;1.00;;;;;13.48;60.43;100816.50;6207094;22;45806;-74
2023/01/07 03:22:22;;;;;;;;;2.00;2.00;;;;;13.49;60.73;100812.91;6207562;22;45586;-77
2023/01/07 03:24:51;;;;;;;;;0.75;0.75;;;;;13.49;60.02;100811.13;6207599;22;45649;-77
2023/01/07 03:27:21;;;;;;;;;2.00;1.00;;;;;13.45;60.38;100807.88;6207645;22;46015;-76
2023/01/07 03:29:48;;;;;;;;;1.00;1.00;;;;;13.48;60.16;100808.59;6207813;22;45545;-75
2023/01/07 03:32:23;;;;;;;;;1.00;1.00;;;;;13.48;60.12;100798.91;6207494;22;45623;-77
2023/01/07 03:34:48;;;;;;;;;2.00;0.00;;;;;13.41;60.18;100784.56;6207379;22;45501;-75
2023/01/07 03:37:16;;;;;;;;;0.00;0.00;;;;;13.49;60.18;100795.31;6207154;22;46259;-78
2023/01/07 03:39:44;;;;;;;;;1.00;1.00;;;;;13.49;59.84;100789.22;6206854;22;45662;-77
2023/01/07 03:48:16;;;;;;;;;1.00;1.00;;;;;13.43;59.78;100777.38;6302770;22;45863;-76
2023/01/07 03:50:41;;;;;;;;;1.00;1.00;;;;;13.45;59.38;100778.91;6302374;22;45533;-77
2023/01/07 03:53:06;;;;;;;;;1.00;1.00;;;;;13.44;59.77;100782.50;6302100;22;45820;-76
2023/01/07 03:55:32;;;;;;;;;2.00;0.00;;;;;13.44;59.68;100766.72;6302689;22;45644;-76
2023/01/07 03:57:57;;;;;;;;;1.00;0.75;;;;;13.43;59.56;100765.06;6303025;22;45843;-75
2023/01/07 04:00:23;;;;;;;;;1.75;1.00;;;;;13.44;59.65;100758.81;6302055;22;45507;-77
2023/01/07 04:02:49;;;;;;;;;2.25;1.00;;;;;13.35;59.02;100743.78;6302286;22;45798;-77
2023/01/07 04:05:14;;;;;;;;;1.00;1.00;;;;;13.41;59.06;100743.28;6302360;22;46607;-76
2023/01/07 04:07:40;;;;;;;;;0.00;0.00;;;;;13.39;58.95;100739.94;6274969;22;46997;-76
2023/01/07 04:10:07;;;;;;;;;1.00;1.00;;;;;13.38;58.94;100738.28;6302221;22;45451;-75
2023/01/07 04:12:32;;;;;;;;;1.00;1.00;;;;;13.40;59.10;100738.13;6302606;22;45751;-76
2023/01/07 04:18:19;;;;;;;;;1.50;1.00;;;;;13.31;58.79;100713.41;6302508;22;45856;-76
2023/01/07 04:20:47;;;;;;;;;1.00;1.00;;;;;13.40;58.82;100724.97;6303199;22;45369;-76
2023/01/07 04:23:14;;;;;;;;;1.00;0.50;;;;;13.38;59.15;100719.03;6303260;22;45506;-75
2023/01/07 04:25:40;;;;;;;;;1.00;1.00;;;;;13.39;58.88;100708.34;6303558;22;45477;-76
2023/01/07 04:28:06;;;;;;;;;0.00;0.00;;;;;13.38;58.96;100697.97;6275877;22;47875;-75
2023/01/07 04:30:32;;;;;;;;;1.00;1.00;;;;;13.37;58.73;100699.75;6304114;22;45625;-75
2023/01/07 04:32:57;;;;;;;;;1.00;1.00;;;;;13.32;58.68;100683.50;6303520;22;45667;-76
2023/01/07 04:35:23;;;;;;;;;1.00;1.00;;;;;13.34;58.93;100678.94;6303258;22;45570;-75
2023/01/07 04:37:48;;;;;;;;;1.00;1.00;;;;;13.29;59.12;100670.59;6303311;22;46429;-75
2023/01/07 04:40:14;;;;;;;;;1.00;1.00;;;;;13.27;59.04;100664.63;6303101;22;45463;-74
2023/01/07 04:42:40;;;;;;;;;0.75;0.25;;;;;13.23;59.14;100660.56;6302408;22;45455;-73
2023/01/07 04:48:28;;;;;;;;;1.00;1.00;;;;;13.20;58.63;100654.72;6302731;22;45580;-74
2023/01/07 04:50:53;;;;;;;;;2.00;1.00;;;;;13.17;59.17;100647.91;6302781;22;45525;-74
2023/01/07 04:53:19;;;;;;;;;1.00;1.00;;;;;13.15;58.79;100646.38;6301889;22;45704;-76
2023/01/07 04:55:44;;;;;;;;;0.50;0.50;;;;;13.13;59.08;100648.28;6302669;22;45576;-75
2023/01/07 04:58:09;;;;;;;;;1.75;1.00;;;;;13.10;59.24;100641.44;6274376;22;46875;-75
2023/01/07 05:03:57;;;;;;;;;0.75;0.75;;;;;13.04;59.63;100619.09;6302453;22;45726;-75
2023/01/07 05:06:22;;;;;;;;;2.00;1.00;;;;;12.99;59.62;100616.03;6302132;22;46332;-75
2023/01/07 05:08:47;;;;;;;;;1.75;1.25;;;;;12.97;59.17;100607.41;6301948;22;47078;-75
2023/01/07 05:11:14;;;;;;;;;1.75;1.75;;;;;12.88;59.44;100599.44;6301758;22;45553;-76
2023/01/07 05:13:39;;;;;;;;;3.00;2.00;;;;;12.88;59.56;100602.06;6301967;22;45585;-74
2023/01/07 05:16:05;;;;;;;;;2.75;2.25;;;;;12.86;59.74;100604.81;6302547;22;45511;-76
2023/01/07 05:18:31;;;;;;;;;3.75;3.00;;;;;12.80;59.73;100593.94;6301768;22;46967;-74
2023/01/07 05:20:56;;;;;;;;;3.75;3.00;;;;;12.80;59.72;100599.19;6274079;22;45496;-74
2023/01/07 05:23:22;;;;;;;;;2.00;2.00;;;;;12.72;60.09;100593.75;6302514;22;45697;-74
2023/01/07 05:25:47;;;;;;;;;3.00;2.25;;;;;12.74;59.84;100603.16;6301720;22;46226;-75
2023/01/07 05:28:12;;;;;;;;;2.00;2.00;;;;;12.71;59.97;100595.53;6301304;22;46166;-75
2023/01/07 05:34:00;;;;;;;;;3.50;3.00;;;;;12.66;60.34;100589.81;6302071;22;45662;-75
2023/01/07 05:36:25;;;;;;;;;2.75;2.50;;;;;12.63;60.20;100582.97;6301585;22;46797;-76
2023/01/07 05:38:50;;;;;;;;;3.00;3.00;;;;;12.62;60.66;100577.88;6302406;22;45577;-74
2023/01/07 05:41:15;;;;;;;;;2.50;2.25;;;;;12.49;60.77;100562.25;6301672;22;45558;-76
2023/01/07 05:43:41;;;;;;;;;2.75;2.75;;;;;12.57;60.95;100577.41;6302383;22;45655;-76
2023/01/07 05:49:28;;;;;;;;;3.25;3.25;;;;;12.44;60.73;100561.78;6301976;22;45954;-78
2023/01/07 05:51:53;;;;;;;;;3.00;2.75;;;;;12.47;60.85;100565.97;6301328;22;45832;-76
2023/01/07 05:54:19;;;;;;;;;4.50;3.25;;;;;12.48;60.91;100576.34;6302213;22;45353;-77
2023/01/07 05:56:44;;;;;;;;;8.00;4.25;;;;;12.46;60.96;100575.63;6274107;22;47342;-75
2023/01/07 05:59:09;;;;;;;;;2.50;1.75;;;;;12.42;61.10;100578.59;6300921;22;46098;-76
2023/01/07 06:01:35;;;;;;;;;2.75;2.75;;;;;12.40;61.13;100580.53;6302078;22;45436;-76
2023/01/07 06:04:00;;;;;;;;;3.50;3.00;;;;;12.29;61.15;100568.25;6302166;22;45535;-76
2023/01/07 06:06:25;;;;;;;;;2.00;2.00;;;;;12.32;61.62;100573.25;6301451;22;47331;-74
2023/01/07 06:08:51;;;;;;;;;4.00;3.00;;;;;12.28;61.56;100565.72;6301855;22;47401;-75
2023/01/07 06:11:16;;;;;;;;;4.00;4.00;;;;;12.27;61.45;100566.69;6249817;22;45670;-75
2023/01/07 06:13:41;;;;;;;;;3.00;3.00;;;;;12.21;61.74;100568.00;6304164;22;45415;-76
2023/01/07 06:19:28;;;;;;;;;3.00;3.00;;;;;12.15;61.93;100565.84;6303956;22;45668;-74
2023/01/07 06:21:54;;;;;;;;;3.25;3.00;;;;;12.13;61.81;100573.88;6302491;22;45538;-76
2023/01/07 06:24:19;;;;;;;;;3.00;2.50;;;;;12.08;61.91;100569.94;6301269;22;45685;-76
2023/01/07 06:26:44;;;;;;;;;4.00;3.00;;;;;12.06;61.94;100577.09;6301888;22;46442;-75
2023/01/07 06:29:10;;;;;;;;;2.75;2.75;;;;;12.05;61.84;100570.16;6301729;22;46132;-75
2023/01/07 06:34:57;;;;;;;;;5.00;3.00;;;;;11.98;62.05;100559.31;6301842;22;45670;-74
2023/01/07 06:37:22;;;;;;;;;4.00;3.50;;;;;11.96;62.23;100558.59;6301273;22;46239;-76
2023/01/07 06:39:47;;;;;;;;;4.00;4.00;;;;;11.96;61.95;100565.63;6301161;22;45720;-75
2023/01/07 06:42:14;;;;;;;;;3.00;3.00;;;;;11.84;62.45;100540.31;6273029;22;45523;-75
2023/01/07 06:44:39;;;;;;;;;3.00;3.00;;;;;11.86;62.13;100551.53;6274585;22;45597;-76
2023/01/07 06:47:04;;;;;;;;;4.00;4.00;;;;;11.91;62.56;100562.53;6301455;22;45691;-75
2023/01/07 06:49:30;;;;;;;;;3.50;2.75;;;;;11.88;62.50;100558.31;6301551;22;46038;-73
2023/01/07 06:51:55;;;;;;;;;4.00;4.00;;;;;11.82;62.16;100542.25;6301555;22;45514;-76
2023/01/07 06:54:20;;;;;;;;;3.75;3.00;;;;;11.89;62.27;100546.03;6301021;22;45625;-75
2023/01/07 06:56:46;;;;;;;;;4.00;3.50;;;;;11.79;62.36;100527.56;6301636;22;45603;-75
2023/01/07 06:59:12;;;;;;;;;3.50;3.00;;;;;11.90;62.45;100538.06;6300539;22;46019;-77
2023/01/07 07:04:59;;;;;;;;;3.50;3.50;;;;;11.79;62.37;100517.06;6301536;22;45586;-76
2023/01/07 07:07:24;;;;;;;;;3.25;3.00;;;;;11.81;62.51;100519.56;6273451;22;47161;-76
2023/01/07 07:09:49;;;;;;;;;3.75;3.50;;;;;11.76;62.51;100514.69;6300658;22;45981;-75
2023/01/07 07:12:16;;;;;;;;;3.50;3.00;;;;;11.79;62.46;100524.94;6300825;22;45545;-75
2023/01/07 07:14:42;;;;;;;;;4.00;4.00;;;;;11.77;62.57;100521.56;6300921;22;45812;-76
2023/01/07 07:20:28;;;;;;;;;4.00;3.00;;;;;11.73;62.57;100512.28;6300967;22;46053;-74
2023/01/07 07:22:54;;;;;;;;;4.50;3.00;;;;;11.69;62.56;100511.66;6301242;22;45522;-75
2023/01/07 07:25:19;;;;;;;;;3.25;3.00;;;;;11.63;62.66;100512.13;6300535;22;45524;-75
2023/01/07 07:27:45;;;;;;;;;4.50;4.00;;;;;11.67;62.51;100510.09;6300427;22;47384;-75
2023/01/07 07:30:12;;;;;;;;;7.25;5.75;;;;;11.65;62.59;100504.13;6302173;22;46006;-74
2023/01/07 07:35:59;;;;;;;;;2.00;2.00;;;;;11.62;62.64;100505.19;6302770;22;45618;-75
2023/01/07 07:38:24;;;;;;;;;4.75;3.50;;;;;11.61;62.54;100505.31;6302845;22;46391;-75
2023/01/07 07:40:49;;;;;;;;;2.00;1.00;;;;;11.61;62.56;100506.16;6301903;22;47100;-74
2023/01/07 07:43:15;;;;;;;;;4.75;3.00;;;;;11.59;62.63;100505.44;6301862;22;45546;-75
2023/01/07 07:45:41;;;;;;;;;3.50;3.00;;;;;11.57;62.50;100494.22;6303272;22;45388;-73
2023/01/07 07:48:12;;;;;;;;;4.00;3.75;;;;;11.57;62.61;100507.34;6302383;22;46375;-75
2023/01/07 07:50:38;;;;;;;;;3.00;3.00;;;;;11.56;62.58;100486.47;6303314;22;45685;-75
2023/01/07 07:53:04;;;;;;;;;3.00;3.00;;;;;11.56;62.61;100491.72;6302209;22;45609;-74
2023/01/07 07:55:29;;;;;;;;;4.00;3.25;;;;;11.51;62.51;100486.81;6302885;22;45460;-75
2023/01/07 07:57:57;;;;;;;;;3.00;3.00;;;;;11.56;62.63;100491.72;6303076;22;47250;-74
2023/01/07 08:00:22;;;;;;;;;2.00;2.00;;;;;11.50;62.57;100490.38;6275080;22;46001;-76
2023/01/07 08:06:11;;;;;;;;;2.25;2.25;;;;;11.49;62.49;100498.41;6302295;22;45529;-75
2023/01/07 08:08:36;;;;;;;;;3.25;3.25;;;;;11.47;62.39;100488.00;6302819;22;45507;-75
2023/01/07 08:11:03;;;;;;;;;2.00;2.00;;;;;11.44;62.33;100483.03;6301730;22;46342;-75
2023/01/07 08:13:29;;;;;;;;;3.75;3.00;;;;;11.43;62.39;100480.50;6301725;22;45720;-75
2023/01/07 08:15:55;;;;;;;;;6.75;4.00;;;;;11.41;62.55;100483.22;6301846;22;45790;-75
2023/01/07 08:18:21;;;;;;;;;4.00;3.00;;;;;11.36;62.42;100480.13;6301890;22;47207;-75
2023/01/07 08:20:46;;;;;;;;;3.00;3.00;;;;;11.40;62.32;100491.22;6301832;22;46009;-75
2023/01/07 08:23:12;;;;;;;;;3.00;3.00;;;;;11.38;62.43;100480.84;6302363;22;45644;-76
2023/01/07 08:25:37;;;;;;;;;3.00;2.50;;;;;11.34;62.09;100477.63;6302843;22;45580;-74
2023/01/07 08:28:03;;;;;;;;;4.00;3.00;;;;;11.38;62.25;100480.84;6301886;22;46057;-75
2023/01/07 08:30:29;;;;;;;;;5.00;3.00;;;;;11.39;62.30;100477.25;6302791;22;45854;-75
2023/01/07 08:32:55;;;;;;;;;5.00;3.25;;;;;11.40;62.26;100467.59;6301190;22;45881;-76
2023/01/07 08:35:21;;;;;;;;;0.00;0.00;;;;;11.39;62.30;100464.16;6302583;22;45561;-74
2023/01/07 08:37:46;;;;;;;;;3.50;3.25;;;;;11.39;62.30;100461.53;6301625;22;46828;-75
2023/01/07 08:40:12;;;;;;;;;4.50;3.50;;;;;11.41;62.19;100453.53;6300933;22;45563;-74
2023/01/07 08:42:38;;;;;;;;;4.25;4.00;;;;;11.33;62.07;100452.38;6302278;22;45534;-73
2023/01/07 08:45:05;;;;;;;;;6.25;3.25;;;;;11.32;62.16;100437.56;6301720;22;45440;-73
2023/01/07 08:47:30;;;;;;;;;4.00;4.00;;;;;11.38;62.21;100444.13;6301650;22;47344;-73
2023/01/07 08:49:56;;;;;;;;;4.75;3.25;;;;;11.37;62.10;100429.34;6301735;22;46054;-74
2023/01/07 08:52:23;;;;;;;;;3.50;3.50;;;;;11.39;62.15;100437.09;6302036;22;45652;-75
2023/01/07 08:54:49;;;;;;;;;6.00;4.75;;;;;11.40;62.09;100428.25;6302043;22;45444;-74
2023/01/07 08:57:15;;;;;;;;;4.00;4.00;;;;;11.35;61.88;100412.88;6301275;22;46533;-73
2023/01/07 08:59:42;;;;;;;;;4.00;2.00;;;;;11.34;62.24;100417.28;6274278;22;47041;-73
2023/01/07 09:02:16;;;;;;;;;8.00;4.00;;;;;11.38;62.21;100419.69;6274132;22;45659;-72
2023/01/07 09:04:42;;;;;;;;;3.75;3.75;;;;;11.34;62.20;100409.41;6302577;22;45570;-74
2023/01/07 09:07:08;;;;;;;;;6.75;5.25;;;;;11.39;62.29;100411.69;6302408;22;45549;-74
2023/01/07 09:09:33;;;;;;;;;5.25;4.75;;;;;11.41;62.27;100417.66;6301661;22;47522;-72
2023/01/07 09:11:58;;;;;;;;;3.00;3.00;;;;;11.40;62.15;100405.50;6301610;22;45448;-75
2023/01/07 09:14:24;;;;;;;;;6.50;4.00;;;;;11.40;62.34;100396.78;6301863;22;45820;-72
2023/01/07 09:16:49;;;;;;;;;6.50;5.75;;;;;11.45;62.26;100399.88;6302390;22;46175;-78
2023/01/07 09:19:15;;;;;;;;;6.00;4.00;;;;;11.40;62.29;100376.63;6302147;22;45730;-77
2023/01/07 09:21:40;;;;;;;;;6.00;6.00;;;;;11.48;62.25;100389.16;6300305;22;45562;-78
2023/01/07 09:24:06;;;;;;;;;4.00;4.00;;;;;11.47;62.23;100375.22;6301733;22;45598;-77
2023/01/07 09:26:31;;;;;;;;;6.00;4.75;;;;;11.42;62.15;100361.63;6301790;22;47199;-76
2023/01/07 09:28:56;;;;;;;;;5.00;4.00;;;;;11.44;62.33;100358.88;6301334;22;47182;-77
2023/01/07 09:31:22;;;;;;;;;4.00;3.75;;;;;11.49;62.18;100357.56;6301873;22;45442;-76
2023/01/07 09:37:09;;;;;;;;;4.00;4.00;;;;;11.51;62.12;100342.53;6302637;22;45840;-76
2023/01/07 09:39:35;;;;;;;;;6.25;6.00;;;;;11.55;61.91;100356.25;6302544;22;45829;-76
2023/01/07 09:42:21;;;;;;;;;6.75;4.50;;;;;11.59;62.41;100347.19;6301643;22;45601;-75
2023/01/07 09:45:06;;;;;;;;;4.00;4.00;;;;;11.48;62.08;100324.41;6302915;22;45647;-76
2023/01/07 09:47:35;;;;;;;;;6.00;4.00;;;;;11.57;62.13;100328.94;6305712;22;45580;-75
2023/01/07 09:50:17;;;;;;;;;5.25;4.00;;;;;11.65;62.00;100325.69;6304839;22;47068;-76
2023/01/07 09:52:48;;;;;;;;;4.00;4.00;;;;;11.66;61.96;100336.06;6304635;22;45689;-77
2023/01/07 09:55:22;;;;;;;;;4.75;4.00;;;;;11.61;62.05;100319.84;6276123;22;45800;-76
2023/01/07 09:57:48;;;;;;;;;6.00;6.00;;;;;11.70;61.90;100324.38;6302757;22;45505;-75
2023/01/07 10:00:21;;;;;;;;;6.00;4.00;;;;;11.73;61.97;100324.16;6301190;22;46969;-75
2023/01/07 10:03:05;;;;;;;;;3.75;3.50;;;;;11.71;61.72;100319.97;6301883;22;45561;-75
2023/01/07 10:05:40;;;;;;;;;4.25;4.00;;;;;11.73;61.74;100328.56;6273720;22;45486;-75
2023/01/07 10:08:20;;;;;;;;;7.00;4.00;;;;;11.77;61.60;100317.69;6300626;22;45651;-74
2023/01/07 10:10:54;;;;;;;;;4.00;3.50;;;;;11.74;61.53;100309.25;6299948;22;46091;-76
2023/01/07 10:13:40;;;;;;;;;4.00;3.00;;;;;11.84;61.41;100333.78;6300515;22;45613;-75
2023/01/07 10:16:14;;;;;;;;;4.75;4.00;;;;;11.87;61.18;100337.97;6301501;22;45581;-75
2023/01/07 10:18:52;;;;;;;;;4.75;4.00;;;;;11.83;61.25;100308.47;6301334;22;47255;-75
2023/01/07 10:21:26;;;;;;;;;5.25;3.50;;;;;11.89;61.13;100313.25;6300819;22;47016;-75
2023/01/07 10:23:58;;;;;;;;;7.00;7.00;;;;;11.86;61.14;100300.38;6301799;22;45644;-73
2023/01/07 10:26:36;;;;;;;;;4.50;3.25;;;;;11.96;61.02;100303.09;6301997;22;45888;-76
2023/01/07 10:29:11;;;;;;;;;5.50;3.75;;;;;11.98;60.99;100301.19;6300935;22;46715;-77
2023/01/07 10:31:36;;;;;;;;;4.00;4.00;;;;;11.99;61.16;100297.56;6301612;22;46416;-77
2023/01/07 10:34:05;;;;;;;;;5.25;5.00;;;;;11.99;60.91;100287.06;6299898;22;45593;-78
2023/01/07 10:36:53;;;;;;;;;3.75;3.50;;;;;12.03;60.82;100278.00;6301663;22;45804;-80
2023/01/07 10:39:42;;;;;;;;;4.00;3.25;;;;;12.05;60.50;100278.69;6302757;22;46374;-83
2023/01/07 10:42:27;;;;;;;;;3.50;3.00;;;;;12.12;60.59;100287.75;6150781;23;48221;-77
2023/01/07 10:45:02;;;;;;;;;5.25;5.25;;;;;12.14;60.62;100283.19;6176525;23;45490;-79
2023/01/07 10:51:27;;;;;;;;;4.50;3.75;;;;;12.19;60.17;100278.41;6086882;23;46087;-77
2023/01/07 10:53:57;;;;;;;;;4.00;3.25;;;;;12.14;60.29;100254.31;6085822;23;46356;-77
2023/01/07 10:56:30;;;;;;;;;3.25;3.00;;;;;12.24;60.18;100249.13;6086406;23;45674;-78
2023/01/07 10:58:55;;;;;;;;;5.25;4.75;;;;;12.26;59.95;100255.91;6086026;23;45732;-78
2023/01/07 11:01:30;;;;;;;;;3.00;3.00;;;;;12.27;59.91;100244.44;6086121;23;47615;-77
2023/01/07 11:07:46;;;;;;;;;4.75;4.25;;;;;12.32;60.11;100228.28;6087898;23;45906;-77
2023/01/07 11:10:17;;;;;;;;;3.00;3.00;;;;;12.32;59.97;100228.28;6088538;23;45614;-74
2023/01/07 11:12:52;;;;;;;;;5.00;5.00;;;;;12.33;59.90;100219.44;6087102;23;46305;-76
2023/01/07 11:15:28;;;;;;;;;5.00;5.00;;;;;12.27;59.96;100202.41;6087618;23;46226;-78
2023/01/07 11:18:00;;;;;;;;;5.50;4.00;;;;;12.35;59.64;100207.88;6087498;23;45775;-76
2023/01/07 11:23:47;;;;;;;;;3.50;3.00;;;;;12.40;59.74;100203.03;6224960;22;46027;-76
2023/01/07 11:26:18;;;;;;;;;4.00;3.00;;;;;12.38;59.81;100191.00;6302725;22;46806;-76
2023/01/07 11:28:53;;;;;;;;;5.50;4.00;;;;;12.47;59.37;100184.97;6304021;22;45672;-75
2023/01/07 11:31:42;;;;;;;;;2.50;2.50;;;;;12.51;59.65;100184.56;6302829;22;45534;-75
2023/01/07 11:34:18;;;;;;;;;4.00;3.00;;;;;12.56;59.31;100184.16;6302718;22;45864;-77
2023/01/07 11:36:44;;;;;;;;;3.00;3.00;;;;;12.46;59.24;100157.88;6302032;22;47037;-77
2023/01/07 11:39:17;;;;;;;;;3.50;3.50;;;;;12.61;59.22;100179.34;6303002;22;45919;-76
2023/01/07 11:42:37;;;;;;;;;3.50;3.00;;;;;12.65;58.82;100164.13;6306303;22;45372;-75
2023/01/07 11:45:23;;;;;;;;;4.00;3.00;;;;;12.66;58.53;100178.94;6209336;22;46261;-75
2023/01/07 11:48:07;;;;;;;;;3.00;2.75;;;;;12.63;58.74;100164.28;6206865;22;46999;-78
2023/01/07 11:50:39;;;;;;;;;3.00;3.00;;;;;12.69;58.79;100160.28;6207419;22;45600;-76
2023/01/07 11:53:14;;;;;;;;;3.00;3.00;;;;;12.72;58.86;100170.53;6206103;22;45825;-74
2023/01/07 11:56:00;;;;;;;;;4.00;3.00;;;;;12.73;58.50;100159.06;6207038;22;47318;-76
2023/01/07 11:58:31;;;;;;;;;3.75;3.75;;;;;12.70;58.82;100140.91;6206623;22;46034;-78
2023/01/07 12:01:11;;;;;;;;;3.00;3.00;;;;;12.77;58.60;100149.94;6207269;22;45678;-75
2023/01/07 12:04:00;;;;;;;;;4.00;3.00;;;;;12.78;58.43;100147.19;6181119;22;45830;-75
2023/01/07 12:06:31;;;;;;;;;3.00;2.50;;;;;12.72;58.51;100124.06;6206718;22;46480;-75
2023/01/07 12:09:14;;;;;;;;;4.25;3.25;;;;;12.81;58.29;100131.13;6207206;22;45807;-79
2023/01/07 12:11:42;;;;;;;;;2.00;1.50;;;;;12.80;58.10;100108.44;6182031;22;45655;-79
2023/01/07 12:14:30;;;;;;;;;4.25;3.00;;;;;12.89;58.23;100118.16;6207292;22;45877;-75
2023/01/07 12:17:08;;;;;;;;;5.00;3.75;;;;;12.78;57.76;100099.03;6206100;22;49204;-78
2023/01/07 12:22:56;;;;;;;;;3.00;3.00;;;;;12.95;57.88;100125.50;6271191;22;45782;-75
2023/01/07 12:25:22;;;;;;;;;4.00;3.00;;;;;12.92;57.59;100106.50;6272019;22;45775;-77
2023/01/07 12:28:05;;;;;;;;;2.75;2.50;;;;;12.98;57.41;100105.97;6270950;22;46473;-75
2023/01/07 12:30:49;;;;;;;;;4.00;4.00;;;;;12.96;57.95;100098.22;6271312;22;46871;-74
2023/01/07 12:33:42;;;;;;;;;4.00;3.00;;;;;13.01;57.48;100100.44;6270562;22;45539;-77
2023/01/07 12:39:35;;;;;;;;;3.00;3.00;;;;;12.99;57.83;100105.84;6271138;22;45993;-75
2023/01/07 12:42:14;;;;;;;;;3.00;3.00;;;;;13.01;57.75;100108.31;6270673;22;45497;-79
2023/01/07 12:44:46;;;;;;;;;4.00;3.00;;;;;12.98;57.68;100106.81;6270713;22;45603;-76
2023/01/07 12:47:23;;;;;;;;;3.75;3.00;;;;;13.03;57.82;100114.28;6271213;22;45905;-73
2023/01/07 12:56:54;;;;;;;;;4.50;2.25;;;;;13.00;57.90;100097.00;6270970;22;45522;-76
2023/01/07 12:59:40;;;;;;;;;4.00;3.25;;;;;13.01;57.92;100089.91;6270849;22;45547;-75
2023/01/07 13:02:31;;;;;;;;;4.00;3.00;;;;;12.99;58.03;100091.88;6269036;22;46745;-75
2023/01/07 13:05:08;;;;;;;;;3.50;3.00;;;;;13.02;58.27;100089.78;6270044;22;46045;-75